Time;durP1;ratioP1;P1;durP2;ratioP2;P2;SDS_P1;SDS_P2;PMS_P1;PMS_P2;Temp;Humidity;BMP_temperature;BMP_pressure;BME280_temperature;BME280_humidity;BME280_pressure;Samples;Min_cycle;Max_cycle;Signal;HPM_P1;HPM_P2
2023/12/07 00:01:03;;;;;;;7.30;3.92;;;6.60;99.90;;;;;;4909197;29;20403;-84
2023/12/07 00:03:29;;;;;;;10.27;3.75;;;6.70;99.90;;;;;;4908999;29;20524;-84
2023/12/07 00:05:54;;;;;;;9.02;4.20;;;6.70;99.90;;;;;;4913313;29;20039;-84
2023/12/07 00:08:20;;;;;;;9.27;4.38;;;6.60;99.90;;;;;;4912448;29;20039;-84
2023/12/07 00:10:45;;;;;;;11.05;3.83;;;6.70;99.90;;;;;;4904330;29;20119;-84
2023/12/07 00:13:11;;;;;;;12.77;4.70;;;6.70;99.90;;;;;;4906220;29;20152;-84
2023/12/07 00:15:37;;;;;;;9.98;4.30;;;6.70;99.90;;;;;;4908993;29;20043;-84
2023/12/07 00:18:03;;;;;;;7.43;4.10;;;6.80;99.90;;;;;;4907651;29;20040;-84
2023/12/07 00:20:29;;;;;;;8.30;4.38;;;6.70;99.90;;;;;;4908768;29;20032;-83
2023/12/07 00:22:55;;;;;;;6.63;3.90;;;6.80;99.90;;;;;;4906807;29;20031;-84
2023/12/07 00:25:21;;;;;;;6.82;4.00;;;6.80;99.90;;;;;;4924955;29;20104;-84
2023/12/07 00:27:48;;;;;;;12.63;4.20;;;6.80;99.90;;;;;;4930338;29;20056;-83
2023/12/07 00:30:14;;;;;;;8.55;3.72;;;6.80;99.90;;;;;;4928558;29;20067;-84
2023/12/07 00:32:43;;;;;;;10.05;4.07;;;6.80;99.90;;;;;;4932300;29;20040;-84
2023/12/07 00:35:10;;;;;;;8.27;3.50;;;6.80;99.90;;;;;;4919830;23;20086;-84
2023/12/07 00:37:36;;;;;;;8.88;4.00;;;6.80;99.90;;;;;;4925985;29;20023;-83
2023/12/07 00:40:03;;;;;;;5.15;2.92;;;6.80;99.90;;;;;;4922559;28;20036;-84
2023/12/07 00:42:28;;;;;;;10.57;4.07;;;6.80;99.90;;;;;;4925294;29;20404;-83
2023/12/07 00:44:55;;;;;;;12.20;3.83;;;6.80;99.90;;;;;;4924790;29;20284;-84
2023/12/07 00:47:20;;;;;;;9.13;3.70;;;6.80;99.90;;;;;;4926255;29;20179;-84
2023/12/07 00:49:46;;;;;;;7.03;3.58;;;6.90;99.90;;;;;;4926433;29;20445;-83
2023/12/07 00:52:12;;;;;;;7.45;3.60;;;6.80;99.90;;;;;;4908956;28;20067;-84
2023/12/07 00:54:39;;;;;;;10.48;3.83;;;6.80;99.90;;;;;;4919874;29;20361;-84
2023/12/07 00:57:05;;;;;;;9.98;3.60;;;6.90;99.90;;;;;;4926466;29;20087;-84
2023/12/07 00:59:33;;;;;;;6.15;3.47;;;6.90;99.90;;;;;;4927842;29;20119;-84
2023/12/07 01:02:01;;;;;;;8.95;3.58;;;6.90;99.90;;;;;;4927399;29;20046;-84
2023/12/07 01:04:28;;;;;;;7.72;3.33;;;6.90;99.90;;;;;;4925948;29;20039;-84
2023/12/07 01:06:53;;;;;;;10.52;3.60;;;7.00;99.90;;;;;;4925896;29;20415;-84
2023/12/07 01:09:19;;;;;;;10.00;4.03;;;6.90;99.90;;;;;;4922211;28;20138;-85
2023/12/07 01:11:45;;;;;;;7.28;3.00;;;6.90;99.90;;;;;;4924406;29;20027;-83
2023/12/07 01:14:11;;;;;;;10.75;4.38;;;6.90;99.90;;;;;;4927838;29;20032;-84
2023/12/07 01:16:37;;;;;;;8.23;3.58;;;6.90;99.90;;;;;;4924856;29;20542;-84
2023/12/07 01:19:02;;;;;;;7.70;4.10;;;6.80;99.90;;;;;;4925290;28;20062;-84
2023/12/07 01:21:28;;;;;;;13.68;4.50;;;6.90;99.90;;;;;;4924735;29;20032;-84
2023/12/07 01:23:54;;;;;;;13.02;4.07;;;6.80;99.90;;;;;;4927388;29;20028;-84
2023/12/07 01:26:19;;;;;;;12.35;4.00;;;6.70;99.90;;;;;;4928777;29;20055;-84
2023/12/07 01:28:45;;;;;;;7.18;4.22;;;6.80;99.90;;;;;;4926795;29;20246;-84
2023/12/07 01:31:11;;;;;;;10.60;3.83;;;6.80;99.90;;;;;;4924846;29;20465;-83
2023/12/07 01:33:36;;;;;;;6.95;3.97;;;6.80;99.90;;;;;;4924335;29;20043;-83
2023/12/07 01:36:02;;;;;;;7.35;3.50;;;6.80;99.90;;;;;;4927307;29;20360;-83
2023/12/07 01:38:28;;;;;;;8.32;3.80;;;6.80;99.90;;;;;;4922604;29;20035;-83
2023/12/07 01:40:53;;;;;;;8.07;4.68;;;6.80;99.90;;;;;;4928626;28;20059;-84
2023/12/07 01:43:20;;;;;;;10.55;4.75;;;6.80;99.90;;;;;;4927679;29;20028;-84
2023/12/07 01:45:47;;;;;;;10.85;4.10;;;6.80;99.90;;;;;;4923369;29;20436;-85
2023/12/07 01:48:13;;;;;;;8.75;4.05;;;6.70;99.90;;;;;;4927404;29;20039;-84
2023/12/07 01:50:39;;;;;;;9.02;4.15;;;6.80;99.90;;;;;;4929205;29;20031;-84
2023/12/07 01:53:05;;;;;;;11.10;4.10;;;6.80;99.90;;;;;;4923428;29;20221;-82
2023/12/07 01:55:32;;;;;;;9.30;3.50;;;6.90;99.90;;;;;;4924289;29;20036;-84
2023/12/07 01:57:58;;;;;;;13.50;4.53;;;6.90;99.90;;;;;;4926131;29;20023;-82
2023/12/07 02:00:26;;;;;;;10.32;4.40;;;6.80;99.90;;;;;;4922661;29;20043;-84
2023/12/07 02:02:51;;;;;;;11.88;4.20;;;6.80;99.90;;;;;;4927781;29;20435;-84
2023/12/07 02:05:17;;;;;;;10.50;4.30;;;6.70;99.90;;;;;;4927281;29;20163;-85
2023/12/07 02:07:43;;;;;;;11.75;3.85;;;6.70;99.90;;;;;;4926964;29;20488;-84
2023/12/07 02:10:10;;;;;;;10.95;3.65;;;6.80;99.90;;;;;;4926453;28;20074;-84
2023/12/07 02:12:36;;;;;;;8.73;3.92;;;6.80;99.90;;;;;;4923798;29;20582;-84
2023/12/07 02:15:03;;;;;;;10.07;4.00;;;6.80;99.90;;;;;;4920665;29;20051;-84
2023/12/07 02:17:34;;;;;;;9.48;3.90;;;6.80;99.90;;;;;;4921943;29;20012;-84
2023/12/07 02:20:10;;;;;;;6.75;3.70;;;6.90;99.90;;;;;;4928108;29;20032;-85
2023/12/07 02:22:43;;;;;;;14.52;3.60;;;6.90;99.90;;;;;;4924186;29;20044;-82
2023/12/07 02:25:12;;;;;;;10.73;4.32;;;6.90;99.90;;;;;;4930360;28;20019;-83
2023/12/07 02:27:40;;;;;;;10.15;4.00;;;7.00;99.90;;;;;;4939380;28;20023;-82
2023/12/07 02:30:08;;;;;;;10.00;3.75;;;7.00;99.90;;;;;;4948582;29;20024;-83
2023/12/07 02:32:35;;;;;;;8.15;3.80;;;7.00;99.90;;;;;;4943548;28;20019;-82
2023/12/07 02:35:01;;;;;;;13.10;3.55;;;7.00;99.90;;;;;;4942018;28;20102;-82
2023/12/07 02:37:32;;;;;;;8.57;3.45;;;7.00;99.90;;;;;;4928829;29;20031;-83
2023/12/07 02:39:58;;;;;;;10.45;3.50;;;7.00;99.90;;;;;;4924469;28;20036;-83
2023/12/07 02:42:25;;;;;;;8.07;3.60;;;7.00;99.90;;;;;;4926802;28;20264;-83
2023/12/07 02:44:53;;;;;;;7.03;3.30;;;7.10;99.90;;;;;;4920015;29;20024;-83
2023/12/07 02:47:19;;;;;;;6.88;3.50;;;7.10;99.90;;;;;;4923789;29;20051;-83
2023/12/07 02:49:44;;;;;;;6.70;3.53;;;7.10;99.90;;;;;;4925488;29;20059;-83
2023/12/07 02:52:10;;;;;;;7.68;3.20;;;7.10;99.90;;;;;;4922170;29;20028;-83
2023/12/07 02:54:36;;;;;;;6.82;3.20;;;7.00;99.90;;;;;;4927102;29;20325;-83
2023/12/07 02:57:02;;;;;;;9.50;3.42;;;7.00;99.90;;;;;;4928050;29;20044;-83
2023/12/07 02:59:28;;;;;;;11.27;3.90;;;7.00;99.90;;;;;;4926281;29;20096;-83
2023/12/07 03:01:53;;;;;;;8.13;3.88;;;7.10;99.90;;;;;;4918895;29;20539;-83
2023/12/07 03:04:19;;;;;;;8.52;3.80;;;7.00;99.90;;;;;;4926609;29;20024;-82
2023/12/07 03:06:44;;;;;;;8.18;3.70;;;7.00;99.90;;;;;;4922134;28;20310;-82
2023/12/07 03:09:10;;;;;;;9.25;4.10;;;7.00;99.90;;;;;;4926918;28;20039;-82
2023/12/07 03:11:35;;;;;;;10.60;3.85;;;6.90;99.90;;;;;;4929484;28;20106;-82
2023/12/07 03:14:01;;;;;;;9.60;3.60;;;7.00;99.90;;;;;;4926381;28;20028;-82
2023/12/07 03:16:27;;;;;;;11.45;3.90;;;7.10;99.90;;;;;;4925358;29;20032;-83
2023/12/07 03:18:52;;;;;;;8.40;3.47;;;7.00;99.90;;;;;;4928182;29;20032;-82
2023/12/07 03:21:18;;;;;;;7.32;4.10;;;7.00;99.90;;;;;;4927694;29;20213;-83
2023/12/07 03:23:43;;;;;;;8.77;3.65;;;7.00;99.90;;;;;;4924671;29;20133;-82
2023/12/07 03:26:09;;;;;;;7.38;3.88;;;7.00;99.90;;;;;;4926404;28;20036;-82
2023/12/07 03:28:34;;;;;;;8.27;3.38;;;7.00;99.90;;;;;;4925699;28;20519;-82
2023/12/07 03:31:00;;;;;;;6.93;3.50;;;7.00;99.90;;;;;;4926772;29;20036;-82
2023/12/07 03:33:26;;;;;;;12.60;4.00;;;6.90;99.90;;;;;;4929020;29;20046;-82
2023/12/07 03:35:51;;;;;;;7.53;4.40;;;6.90;99.90;;;;;;4924950;29;20447;-82
2023/12/07 03:38:17;;;;;;;9.75;4.03;;;6.90;99.90;;;;;;4926901;28;20276;-83
2023/12/07 03:40:42;;;;;;;13.77;4.85;;;6.90;99.90;;;;;;4924885;29;20028;-82
2023/12/07 03:43:08;;;;;;;8.65;3.90;;;6.90;99.90;;;;;;4926523;29;20035;-82
2023/12/07 03:45:34;;;;;;;9.95;4.53;;;6.80;99.90;;;;;;4923105;29;20023;-82
2023/12/07 03:48:00;;;;;;;9.90;4.57;;;6.80;99.90;;;;;;4925902;29;20519;-81
2023/12/07 03:50:25;;;;;;;10.50;4.45;;;6.90;99.90;;;;;;4930181;29;20039;-82
2023/12/07 03:52:51;;;;;;;6.30;4.10;;;6.90;99.90;;;;;;4924153;29;20090;-82
2023/12/07 03:55:16;;;;;;;14.32;4.70;;;6.90;99.90;;;;;;4922969;29;20020;-82
2023/12/07 03:57:42;;;;;;;11.73;4.88;;;6.70;99.90;;;;;;4921217;28;20043;-83
2023/12/07 04:00:11;;;;;;;7.38;4.03;;;6.90;99.90;;;;;;4923411;29;20042;-83
2023/12/07 04:02:37;;;;;;;8.02;3.72;;;6.80;99.90;;;;;;4924536;29;20417;-82
2023/12/07 04:05:02;;;;;;;10.70;4.53;;;6.80;99.90;;;;;;4926958;28;20568;-82
2023/12/07 04:07:29;;;;;;;6.60;4.00;;;6.90;99.90;;;;;;4933514;29;20035;-82
2023/12/07 04:09:57;;;;;;;8.80;4.45;;;6.90;99.90;;;;;;4933259;29;20035;-83
2023/12/07 04:12:23;;;;;;;9.88;4.25;;;6.90;99.90;;;;;;4931423;29;20051;-83
2023/12/07 04:14:49;;;;;;;7.03;3.88;;;6.90;99.90;;;;;;4928271;29;20043;-83
2023/12/07 04:17:15;;;;;;;9.43;4.07;;;6.90;99.90;;;;;;4928204;29;20027;-83
2023/12/07 04:19:41;;;;;;;9.35;4.18;;;6.90;99.90;;;;;;4927442;29;20060;-84
2023/12/07 04:22:06;;;;;;;10.90;4.28;;;6.90;99.90;;;;;;4929407;29;20039;-83
2023/12/07 04:24:32;;;;;;;11.68;4.32;;;6.90;99.90;;;;;;4925417;28;20518;-83
2023/12/07 04:26:58;;;;;;;12.35;4.82;;;6.80;99.90;;;;;;4925163;29;20043;-83
2023/12/07 04:29:23;;;;;;;10.90;4.45;;;6.90;99.90;;;;;;4925625;29;21180;-83
2023/12/07 04:31:49;;;;;;;10.48;5.03;;;6.90;99.90;;;;;;4943230;29;20032;-83
2023/12/07 04:34:15;;;;;;;12.38;4.78;;;7.00;99.90;;;;;;4946202;29;20040;-83
2023/12/07 04:36:40;;;;;;;15.02;5.75;;;7.00;99.90;;;;;;4945532;28;20032;-82
2023/12/07 04:39:06;;;;;;;12.02;5.25;;;7.00;99.90;;;;;;4937641;28;20119;-82
2023/12/07 04:41:32;;;;;;;12.77;6.00;;;7.00;99.90;;;;;;4926819;28;20043;-81
2023/12/07 04:43:57;;;;;;;13.18;5.60;;;7.00;99.90;;;;;;4926415;29;20032;-81
2023/12/07 04:46:23;;;;;;;23.77;6.82;;;7.00;99.90;;;;;;4925282;29;20040;-81
2023/12/07 04:48:48;;;;;;;17.23;6.80;;;7.00;99.90;;;;;;4927583;29;20502;-81
2023/12/07 04:51:14;;;;;;;13.55;6.55;;;7.00;99.90;;;;;;4929144;29;20041;-80
2023/12/07 04:53:40;;;;;;;16.67;6.65;;;7.00;99.90;;;;;;4927405;29;20031;-81
2023/12/07 04:56:06;;;;;;;18.75;6.97;;;7.00;99.90;;;;;;4927984;29;21337;-81
2023/12/07 04:58:32;;;;;;;20.48;7.43;;;7.00;99.90;;;;;;4925341;29;20111;-81
2023/12/07 05:00:57;;;;;;;17.58;7.20;;;7.00;99.90;;;;;;4927970;29;20118;-81
2023/12/07 05:03:23;;;;;;;16.98;6.68;;;7.00;99.90;;;;;;4928747;29;20042;-81
2023/12/07 05:05:49;;;;;;;14.15;6.90;;;7.00;99.90;;;;;;4924603;28;20110;-82
2023/12/07 05:08:15;;;;;;;18.50;7.43;;;7.00;99.90;;;;;;4925012;29;20551;-82
2023/12/07 05:10:41;;;;;;;16.65;7.40;;;7.00;99.90;;;;;;4927485;29;20036;-82
2023/12/07 05:13:06;;;;;;;17.88;8.38;;;7.10;99.90;;;;;;4923846;28;20165;-82
2023/12/07 05:15:32;;;;;;;15.98;7.85;;;7.00;99.90;;;;;;4924845;29;20028;-82
2023/12/07 05:17:58;;;;;;;20.80;8.32;;;7.10;99.90;;;;;;4926613;29;20027;-82
2023/12/07 05:20:24;;;;;;;17.23;7.75;;;7.00;99.90;;;;;;4925855;29;20508;-82
2023/12/07 05:22:50;;;;;;;16.35;7.40;;;6.90;99.90;;;;;;4927702;29;20440;-83
2023/12/07 05:25:15;;;;;;;20.50;8.00;;;7.10;99.90;;;;;;4924664;29;20043;-83
2023/12/07 05:27:41;;;;;;;17.67;7.97;;;7.00;99.90;;;;;;4922244;29;20035;-82
2023/12/07 05:30:07;;;;;;;19.40;7.07;;;7.10;99.90;;;;;;4924213;28;20043;-82
2023/12/07 05:32:33;;;;;;;20.48;8.18;;;7.10;99.90;;;;;;4921387;28;20518;-82
2023/12/07 05:34:58;;;;;;;20.70;7.45;;;7.00;99.90;;;;;;4925569;28;20039;-83
2023/12/07 05:37:24;;;;;;;16.15;7.68;;;7.00;99.90;;;;;;4923028;29;20047;-83
2023/12/07 05:39:50;;;;;;;21.85;8.02;;;7.00;99.90;;;;;;4924652;29;20036;-83
2023/12/07 05:42:16;;;;;;;16.77;7.45;;;7.00;99.90;;;;;;4925846;29;20479;-83
2023/12/07 05:44:41;;;;;;;19.55;7.45;;;7.00;99.90;;;;;;4928257;29;20036;-83
2023/12/07 05:47:07;;;;;;;16.95;8.18;;;6.90;99.90;;;;;;4925270;28;20052;-82
2023/12/07 05:49:33;;;;;;;16.90;7.15;;;7.00;99.90;;;;;;4926500;29;20040;-83
2023/12/07 05:51:59;;;;;;;20.63;7.28;;;7.00;99.90;;;;;;4927085;29;20043;-82
2023/12/07 05:54:25;;;;;;;17.17;7.10;;;7.00;99.90;;;;;;4928432;29;20074;-83
2023/12/07 05:56:50;;;;;;;16.48;8.55;;;7.00;99.90;;;;;;4922950;29;20032;-82
2023/12/07 05:59:16;;;;;;;17.65;8.30;;;7.10;99.90;;;;;;4924166;29;20074;-83
2023/12/07 06:01:43;;;;;;;16.98;7.05;;;7.00;99.90;;;;;;4924958;29;20115;-83
2023/12/07 06:04:10;;;;;;;17.23;7.13;;;7.00;99.90;;;;;;4927751;29;20491;-83
2023/12/07 06:06:36;;;;;;;13.80;6.57;;;7.10;99.90;;;;;;4927259;28;20236;-83
2023/12/07 06:09:03;;;;;;;21.77;8.60;;;7.00;99.90;;;;;;4930559;29;20106;-83
2023/12/07 06:11:28;;;;;;;19.02;7.00;;;7.00;99.90;;;;;;4925487;29;20432;-83
2023/12/07 06:13:54;;;;;;;15.23;7.15;;;7.00;99.90;;;;;;4923202;29;20502;-83
2023/12/07 06:16:20;;;;;;;15.45;6.13;;;7.10;99.90;;;;;;4924875;29;20605;-83
2023/12/07 06:18:46;;;;;;;16.38;6.88;;;7.10;99.90;;;;;;4924902;29;20119;-83
2023/12/07 06:21:13;;;;;;;15.57;6.63;;;7.10;99.90;;;;;;4921763;29;20023;-83
2023/12/07 06:23:39;;;;;;;17.85;5.50;;;7.10;99.90;;;;;;4923861;29;20511;-83
2023/12/07 06:26:05;;;;;;;12.13;5.30;;;7.10;99.90;;;;;;4928396;29;20036;-83
2023/12/07 06:28:32;;;;;;;15.93;6.38;;;7.20;99.90;;;;;;4924842;28;20513;-83
2023/12/07 06:30:57;;;;;;;14.13;6.10;;;7.20;99.90;;;;;;4923001;29;20094;-83
2023/12/07 06:33:23;;;;;;;13.65;6.00;;;7.10;99.90;;;;;;4929561;29;20055;-82
2023/12/07 06:35:49;;;;;;;13.00;6.53;;;7.20;99.90;;;;;;4945275;29;20078;-83
2023/12/07 06:38:14;;;;;;;13.65;5.63;;;7.20;99.90;;;;;;4948773;29;20095;-83
2023/12/07 06:40:40;;;;;;;13.90;6.28;;;7.20;99.90;;;;;;4947268;29;20031;-83
2023/12/07 06:43:05;;;;;;;16.88;6.90;;;7.10;99.90;;;;;;4935233;29;20488;-84
2023/12/07 06:45:31;;;;;;;17.50;6.90;;;7.20;99.90;;;;;;4932010;29;20035;-83
2023/12/07 06:47:57;;;;;;;15.93;5.88;;;7.20;99.90;;;;;;4925103;28;20090;-83
2023/12/07 06:50:22;;;;;;;18.38;6.10;;;7.20;99.90;;;;;;4927845;29;20067;-83
2023/12/07 06:52:48;;;;;;;16.80;6.05;;;7.20;99.90;;;;;;4926367;29;20023;-83
2023/12/07 06:55:15;;;;;;;13.80;6.10;;;7.20;99.90;;;;;;4926654;28;20106;-84
2023/12/07 06:57:40;;;;;;;13.93;6.25;;;7.20;99.90;;;;;;4918723;29;20244;-83
2023/12/07 07:00:10;;;;;;;13.10;6.10;;;7.20;99.90;;;;;;4927094;29;20043;-84
2023/12/07 07:02:38;;;;;;;21.27;6.32;;;7.10;99.90;;;;;;4926003;29;20393;-83
2023/12/07 07:05:05;;;;;;;13.32;6.32;;;7.30;99.90;;;;;;4929234;29;20031;-83
2023/12/07 07:07:31;;;;;;;15.95;6.00;;;7.30;99.90;;;;;;4930905;29;20091;-82
2023/12/07 07:09:57;;;;;;;17.30;7.50;;;7.20;99.90;;;;;;4929985;29;20128;-80
2023/12/07 07:12:23;;;;;;;15.38;5.47;;;7.20;99.90;;;;;;4923565;29;20043;-88
2023/12/07 07:14:49;;;;;;;12.48;5.93;;;7.20;99.90;;;;;;4925687;28;20392;-87
2023/12/07 07:17:15;;;;;;;12.15;5.68;;;7.20;99.90;;;;;;4923192;29;20050;-86
2023/12/07 07:19:41;;;;;;;19.20;6.28;;;7.30;99.90;;;;;;4927901;29;20023;-86
2023/12/07 07:22:09;;;;;;;19.25;6.10;;;7.30;99.90;;;;;;4931119;29;20046;-86
2023/12/07 07:24:34;;;;;;;10.80;5.35;;;7.30;99.90;;;;;;4922295;29;20652;-86
2023/12/07 07:27:00;;;;;;;11.75;5.32;;;7.40;99.90;;;;;;4924908;29;20039;-86
2023/12/07 07:29:27;;;;;;;15.38;5.07;;;7.30;99.90;;;;;;4921633;28;20126;-86
2023/12/07 07:31:53;;;;;;;10.10;5.07;;;7.40;99.90;;;;;;4931121;28;20036;-86
2023/12/07 07:34:18;;;;;;;11.73;4.75;;;7.40;99.90;;;;;;4922720;29;20293;-86
2023/12/07 07:36:44;;;;;;;13.20;5.20;;;7.50;99.90;;;;;;4923972;28;20507;-86
2023/12/07 07:39:11;;;;;;;12.15;4.30;;;7.40;99.90;;;;;;4927962;29;20024;-86
2023/12/07 07:41:37;;;;;;;11.07;4.38;;;7.40;99.90;;;;;;4926417;29;20561;-85
2023/12/07 07:44:02;;;;;;;8.57;4.30;;;7.40;99.90;;;;;;4927747;29;20069;-87
2023/12/07 07:46:28;;;;;;;9.73;4.35;;;7.50;99.90;;;;;;4923448;28;20054;-87
2023/12/07 07:48:54;;;;;;;7.28;4.03;;;7.50;99.90;;;;;;4923862;29;20630;-84
2023/12/07 07:51:19;;;;;;;8.60;3.80;;;7.50;99.90;;;;;;4919113;28;20177;-85
2023/12/07 07:53:45;;;;;;;12.30;3.92;;;7.50;99.90;;;;;;4923080;29;20118;-83
2023/12/07 07:56:10;;;;;;;10.30;3.80;;;7.50;99.90;;;;;;4919458;29;20039;-88
2023/12/07 07:58:39;;;;;;;9.05;4.28;;;7.50;99.90;;;;;;4922081;28;20365;-82
2023/12/07 08:01:04;;;;;;;11.48;3.90;;;7.60;99.90;;;;;;4922478;28;20023;-79
2023/12/07 08:03:30;;;;;;;14.40;4.20;;;7.50;99.90;;;;;;4917900;28;20075;-83
2023/12/07 08:05:56;;;;;;;10.25;4.03;;;7.50;99.90;;;;;;4923999;28;20178;-81
2023/12/07 08:08:22;;;;;;;11.88;4.53;;;7.50;99.90;;;;;;4923935;28;20522;-81
2023/12/07 08:10:47;;;;;;;10.40;4.30;;;7.50;99.90;;;;;;4920469;28;20024;-81
2023/12/07 08:13:13;;;;;;;11.52;3.60;;;7.60;99.90;;;;;;4918221;28;20027;-80
2023/12/07 08:15:39;;;;;;;9.23;3.28;;;7.60;99.90;;;;;;4920827;28;20032;-81
2023/12/07 08:18:08;;;;;;;7.30;3.33;;;7.70;99.90;;;;;;4919100;28;20412;-80
2023/12/07 08:21:02;;;;;;;6.80;2.95;;;7.70;99.90;;;;;;4913028;28;20106;-82
2023/12/07 08:23:54;;;;;;;12.30;3.33;;;7.70;99.90;;;;;;4905558;29;20470;-83
2023/12/07 08:26:20;;;;;;;7.45;3.03;;;7.70;99.90;;;;;;4913459;28;20034;-81
2023/12/07 08:28:46;;;;;;;6.13;2.90;;;7.70;99.90;;;;;;4904977;28;21400;-85
2023/12/07 08:31:12;;;;;;;9.65;3.00;;;7.80;99.90;;;;;;4910613;28;20507;-84
2023/12/07 08:33:39;;;;;;;5.90;2.30;;;7.80;99.90;;;;;;4909113;28;20040;-84
2023/12/07 08:36:05;;;;;;;6.43;2.50;;;7.80;99.90;;;;;;4925959;28;20062;-85
2023/12/07 08:38:32;;;;;;;8.32;3.05;;;7.80;99.90;;;;;;4928744;28;20032;-86
2023/12/07 08:41:00;;;;;;;12.65;3.45;;;7.80;99.90;;;;;;4924123;28;20035;-83
2023/12/07 08:43:26;;;;;;;8.15;2.47;;;7.80;99.90;;;;;;4914282;28;20016;-80
2023/12/07 08:45:52;;;;;;;9.80;2.70;;;7.80;99.90;;;;;;4904824;28;20028;-83
2023/12/07 08:48:19;;;;;;;6.75;2.92;;;7.90;99.70;;;;;;4902452;28;20102;-78
2023/12/07 08:50:45;;;;;;;9.63;3.08;;;7.90;98.80;;;;;;4903947;28;20020;-83
2023/12/07 08:53:10;;;;;;;8.57;3.00;;;7.90;99.20;;;;;;4899488;28;20472;-81
2023/12/07 08:55:36;;;;;;;7.47;2.60;;;7.90;99.40;;;;;;4900936;28;20050;-79
2023/12/07 08:58:04;;;;;;;12.50;2.75;;;7.80;98.90;;;;;;4900226;28;20129;-83
2023/12/07 09:00:31;;;;;;;5.70;2.78;;;8.00;98.40;;;;;;4891882;28;20115;-84
2023/12/07 09:02:57;;;;;;;9.25;3.42;;;8.00;98.30;;;;;;4880076;28;20031;-78
2023/12/07 09:05:23;;;;;;;6.80;2.72;;;8.00;98.40;;;;;;4891230;28;20181;-82
2023/12/07 09:07:48;;;;;;;7.93;2.70;;;8.00;97.90;;;;;;4895747;28;20505;-79
2023/12/07 09:10:14;;;;;;;8.57;2.97;;;8.00;98.30;;;;;;4897820;28;20015;-84
2023/12/07 09:12:39;;;;;;;9.52;3.13;;;8.00;98.00;;;;;;4897327;28;20269;-83
2023/12/07 09:15:07;;;;;;;6.57;2.60;;;8.10;98.30;;;;;;4893296;29;20110;-80
2023/12/07 09:17:33;;;;;;;9.27;3.13;;;8.10;97.50;;;;;;4901882;28;20523;-83
2023/12/07 09:19:59;;;;;;;8.60;3.15;;;8.10;97.90;;;;;;4899951;28;20035;-84
2023/12/07 09:22:25;;;;;;;5.18;2.97;;;8.10;98.00;;;;;;4902117;28;20128;-79
2023/12/07 09:24:51;;;;;;;5.88;1.98;;;8.00;98.50;;;;;;4903131;28;20122;-79
2023/12/07 09:27:16;;;;;;;7.13;2.92;;;8.10;97.20;;;;;;4904104;29;20031;-79
2023/12/07 09:29:42;;;;;;;8.18;3.28;;;8.10;98.20;;;;;;4900762;28;20281;-80
2023/12/07 09:32:08;;;;;;;7.90;2.70;;;8.10;98.40;;;;;;4906296;28;20365;-82
2023/12/07 09:34:34;;;;;;;9.57;3.03;;;8.10;97.30;;;;;;4901584;28;20126;-79
2023/12/07 09:37:09;;;;;;;8.88;2.75;;;8.20;97.40;;;;;;4896565;28;20067;-77
2023/12/07 09:39:35;;;;;;;10.43;2.95;;;8.20;96.70;;;;;;4894058;28;20413;-79
2023/12/07 09:42:01;;;;;;;8.50;3.10;;;8.20;97.40;;;;;;4899720;28;20254;-82
2023/12/07 09:44:28;;;;;;;8.30;2.47;;;8.10;96.90;;;;;;4897533;28;20471;-78
2023/12/07 09:46:54;;;;;;;6.72;2.40;;;8.20;96.80;;;;;;4894765;28;20779;-79
2023/12/07 09:49:20;;;;;;;6.28;3.00;;;8.20;96.40;;;;;;4903678;28;20059;-79
2023/12/07 09:51:47;;;;;;;6.50;2.47;;;8.30;96.60;;;;;;4897898;28;20028;-80
2023/12/07 09:54:13;;;;;;;9.80;2.85;;;8.20;96.50;;;;;;4886514;28;20299;-82
2023/12/07 09:56:39;;;;;;;8.90;2.88;;;8.20;97.00;;;;;;4897999;28;20566;-78
2023/12/07 09:59:06;;;;;;;6.90;2.72;;;8.30;96.10;;;;;;4900460;29;20277;-79
2023/12/07 10:01:35;;;;;;;12.00;3.20;;;8.20;96.50;;;;;;4893539;28;20195;-80
2023/12/07 10:04:25;;;;;;;6.97;2.75;;;8.30;96.70;;;;;;4901096;28;20051;-80
2023/12/07 10:06:52;;;;;;;6.00;2.70;;;8.40;95.50;;;;;;4895950;29;20039;-78
2023/12/07 10:09:19;;;;;;;8.55;3.45;;;8.40;96.40;;;;;;4907610;29;20229;-82
2023/12/07 10:11:44;;;;;;;8.95;3.05;;;8.40;96.30;;;;;;4898085;28;20081;-80
2023/12/07 10:14:10;;;;;;;4.60;2.72;;;8.40;96.50;;;;;;4894023;28;20293;-79
2023/12/07 10:16:37;;;;;;;18.10;3.83;;;8.40;95.90;;;;;;4893097;28;20024;-77
2023/12/07 10:19:21;;;;;;;8.40;3.13;;;8.40;95.90;;;;;;4897346;28;20020;-77
2023/12/07 10:21:49;;;;;;;9.20;2.73;;;8.40;95.70;;;;;;4893339;29;20480;-78
2023/12/07 10:24:16;;;;;;;9.18;2.88;;;8.50;95.10;;;;;;4893876;29;21253;-81
2023/12/07 10:26:43;;;;;;;8.27;2.50;;;8.40;95.00;;;;;;4887610;28;20426;-79
2023/12/07 10:29:09;;;;;;;4.55;2.70;;;8.50;94.30;;;;;;4891633;29;20031;-77
2023/12/07 10:31:36;;;;;;;10.93;2.95;;;8.50;94.60;;;;;;4897742;28;20035;-80
2023/12/07 10:34:02;;;;;;;7.35;2.40;;;8.60;94.60;;;;;;4900695;28;20762;-82
2023/12/07 10:36:28;;;;;;;5.55;2.28;;;8.60;94.80;;;;;;4903102;28;20447;-79
2023/12/07 10:38:54;;;;;;;7.78;2.65;;;8.70;93.90;;;;;;4901943;28;21100;-82
2023/12/07 10:41:21;;;;;;;5.82;2.65;;;8.70;94.00;;;;;;4894432;28;20028;-78
2023/12/07 10:43:51;;;;;;;8.20;2.85;;;8.70;93.70;;;;;;4902296;28;20539;-78
2023/12/07 10:46:19;;;;;;;7.95;2.42;;;8.80;92.50;;;;;;4897357;28;20043;-77
2023/12/07 10:48:47;;;;;;;5.93;2.58;;;8.80;92.60;;;;;;4895535;28;20026;-78
2023/12/07 10:51:22;;;;;;;8.82;3.10;;;8.70;92.80;;;;;;4892568;28;20038;-77
2023/12/07 10:53:50;;;;;;;6.65;2.60;;;8.80;91.90;;;;;;4892032;28;20043;-76
2023/12/07 10:56:28;;;;;;;5.80;2.25;;;8.80;92.10;;;;;;4894019;28;20016;-79
2023/12/07 10:58:55;;;;;;;7.55;2.00;;;8.80;91.80;;;;;;4903019;28;20076;-76
2023/12/07 11:01:22;;;;;;;5.85;1.98;;;8.80;91.40;;;;;;4899353;28;20492;-79
2023/12/07 11:03:50;;;;;;;5.10;2.28;;;8.80;91.30;;;;;;4891869;29;20880;-78
2023/12/07 11:06:18;;;;;;;5.20;2.45;;;8.80;90.10;;;;;;4898810;28;20036;-78
2023/12/07 11:08:49;;;;;;;4.90;2.30;;;8.80;91.00;;;;;;4902704;28;20063;-77
2023/12/07 11:11:39;;;;;;;6.28;2.30;;;8.80;91.20;;;;;;4904977;28;20545;-81
2023/12/07 11:14:06;;;;;;;6.95;2.33;;;8.80;90.30;;;;;;4887036;28;20631;-77
2023/12/07 11:16:37;;;;;;;6.88;2.90;;;8.90;90.20;;;;;;4891676;29;20031;-76
2023/12/07 11:19:04;;;;;;;4.25;2.25;;;8.80;90.60;;;;;;4896605;28;20043;-77
2023/12/07 11:21:30;;;;;;;7.45;2.38;;;8.80;89.70;;;;;;4895267;28;20114;-77
2023/12/07 11:24:00;;;;;;;4.97;2.33;;;8.80;89.60;;;;;;4896126;28;20032;-75
2023/12/07 11:26:26;;;;;;;8.00;2.50;;;8.70;90.60;;;;;;4902085;28;20135;-76
2023/12/07 11:28:54;;;;;;;4.57;2.10;;;8.80;89.90;;;;;;4890820;28;20031;-75
2023/12/07 11:31:21;;;;;;;5.57;2.55;;;8.70;89.00;;;;;;4899983;28;20032;-75
2023/12/07 11:33:47;;;;;;;7.55;2.38;;;8.70;90.10;;;;;;4897546;28;20679;-78
2023/12/07 11:36:13;;;;;;;7.47;2.03;;;8.70;89.10;;;;;;4901777;28;20218;-79
2023/12/07 11:39:15;;;;;;;7.20;2.80;;;8.70;89.80;;;;;;4906663;28;20023;-80
2023/12/07 11:41:44;;;;;;;8.38;2.20;;;8.60;90.00;;;;;;4909113;28;20027;-78
2023/12/07 11:44:12;;;;;;;9.50;2.70;;;8.70;89.60;;;;;;4906336;28;20052;-79
2023/12/07 11:46:38;;;;;;;4.75;2.80;;;8.70;90.10;;;;;;4903790;28;20058;-76
2023/12/07 11:49:05;;;;;;;7.13;2.58;;;8.60;91.10;;;;;;4893418;28;20768;-76
2023/12/07 11:51:31;;;;;;;11.75;2.40;;;8.70;88.30;;;;;;4898189;28;20123;-77
2023/12/07 11:53:56;;;;;;;5.78;2.40;;;8.70;90.00;;;;;;4905505;29;20476;-77
2023/12/07 11:56:22;;;;;;;7.88;2.67;;;8.70;89.30;;;;;;4901324;28;20603;-77
2023/12/07 11:58:49;;;;;;;8.70;2.78;;;8.70;90.00;;;;;;4900141;28;20031;-83
2023/12/07 12:01:17;;;;;;;6.38;2.72;;;8.70;90.70;;;;;;4907945;28;20421;-76
2023/12/07 12:03:43;;;;;;;3.83;2.20;;;8.70;90.60;;;;;;4901504;28;20051;-78
2023/12/07 12:06:10;;;;;;;4.43;2.28;;;8.70;88.10;;;;;;4906934;28;20051;-79
2023/12/07 12:08:36;;;;;;;8.73;1.73;;;8.70;89.50;;;;;;4913195;28;20039;-78
2023/12/07 12:11:02;;;;;;;7.50;2.42;;;8.70;88.00;;;;;;4916349;29;20032;-79
2023/12/07 12:13:30;;;;;;;3.95;2.05;;;8.70;87.80;;;;;;4915606;29;20032;-81
2023/12/07 12:15:57;;;;;;;4.35;1.42;;;8.70;86.40;;;;;;4910256;28;20578;-77
2023/12/07 12:18:25;;;;;;;5.25;2.30;;;8.70;88.40;;;;;;4904982;29;20483;-81
2023/12/07 12:20:51;;;;;;;6.03;2.03;;;8.70;88.20;;;;;;4902132;28;21319;-77
2023/12/07 12:23:17;;;;;;;4.82;2.00;;;8.80;87.60;;;;;;4896740;28;20074;-75
2023/12/07 12:25:43;;;;;;;4.53;2.33;;;8.80;86.30;;;;;;4900101;28;20559;-76
2023/12/07 12:28:09;;;;;;;5.65;2.17;;;8.80;87.60;;;;;;4892036;28;20228;-76
2023/12/07 12:30:36;;;;;;;5.88;2.10;;;8.80;86.10;;;;;;4896242;28;20095;-76
2023/12/07 12:33:02;;;;;;;8.30;2.65;;;8.80;86.70;;;;;;4904385;28;20024;-76
2023/12/07 12:35:28;;;;;;;7.15;2.35;;;8.70;86.80;;;;;;4902324;28;20252;-77
2023/12/07 12:37:55;;;;;;;7.05;2.50;;;8.80;87.30;;;;;;4905363;28;20066;-77
2023/12/07 12:40:22;;;;;;;10.02;2.30;;;8.70;88.00;;;;;;4896178;28;20028;-78
2023/12/07 12:42:50;;;;;;;5.88;2.38;;;8.70;86.80;;;;;;4902756;28;20167;-77
2023/12/07 12:45:18;;;;;;;3.65;2.20;;;8.70;87.80;;;;;;4908385;28;20127;-76
2023/12/07 12:47:45;;;;;;;8.43;2.15;;;8.80;86.90;;;;;;4904862;28;20122;-75
2023/12/07 12:50:12;;;;;;;5.63;2.10;;;8.70;87.50;;;;;;4903332;28;20488;-76